sensor_id;sensor_type;location;lat;lon;timestamp;P1;durP1;ratioP1;P2;durP2;ratioP2
5225;SDS011;2632;51.666;7.146;2023-05-10T00:01:13;3.67;;;2.80;;
5225;SDS011;2632;51.666;7.146;2023-05-10T00:03:39;4.43;;;2.97;;
5225;SDS011;2632;51.666;7.146;2023-05-10T00:06:06;3.70;;;2.80;;
5225;SDS011;2632;51.666;7.146;2023-05-10T00:08:33;5.80;;;3.37;;
5225;SDS011;2632;51.666;7.146;2023-05-10T00:10:59;5.17;;;3.43;;
5225;SDS011;2632;51.666;7.146;2023-05-10T00:13:26;5.13;;;3.40;;
5225;SDS011;2632;51.666;7.146;2023-05-10T00:15:53;6.10;;;3.63;;
5225;SDS011;2632;51.666;7.146;2023-05-10T00:18:20;5.90;;;4.00;;
5225;SDS011;2632;51.666;7.146;2023-05-10T00:20:46;6.40;;;4.43;;
5225;SDS011;2632;51.666;7.146;2023-05-10T00:23:14;7.17;;;4.37;;
5225;SDS011;2632;51.666;7.146;2023-05-10T00:25:41;6.87;;;4.00;;
5225;SDS011;2632;51.666;7.146;2023-05-10T00:28:07;6.37;;;3.80;;
5225;SDS011;2632;51.666;7.146;2023-05-10T00:30:34;8.50;;;4.47;;
5225;SDS011;2632;51.666;7.146;2023-05-10T00:33:01;8.50;;;4.73;;
5225;SDS011;2632;51.666;7.146;2023-05-10T00:35:27;9.70;;;5.43;;
5225;SDS011;2632;51.666;7.146;2023-05-10T00:37:54;9.70;;;4.53;;
5225;SDS011;2632;51.666;7.146;2023-05-10T00:40:20;7.70;;;4.63;;
5225;SDS011;2632;51.666;7.146;2023-05-10T00:42:47;9.77;;;4.90;;
5225;SDS011;2632;51.666;7.146;2023-05-10T00:45:14;9.70;;;5.23;;
5225;SDS011;2632;51.666;7.146;2023-05-10T00:47:40;10.07;;;5.07;;
5225;SDS011;2632;51.666;7.146;2023-05-10T00:50:07;10.10;;;5.30;;
5225;SDS011;2632;51.666;7.146;2023-05-10T00:52:35;9.87;;;5.37;;
5225;SDS011;2632;51.666;7.146;2023-05-10T00:55:01;7.43;;;4.67;;
5225;SDS011;2632;51.666;7.146;2023-05-10T00:57:29;7.17;;;4.27;;
5225;SDS011;2632;51.666;7.146;2023-05-10T00:59:56;10.13;;;5.07;;
5225;SDS011;2632;51.666;7.146;2023-05-10T01:02:23;8.13;;;4.57;;
5225;SDS011;2632;51.666;7.146;2023-05-10T01:04:50;8.70;;;4.80;;
5225;SDS011;2632;51.666;7.146;2023-05-10T01:07:18;10.23;;;5.13;;
5225;SDS011;2632;51.666;7.146;2023-05-10T01:09:44;8.97;;;5.17;;
5225;SDS011;2632;51.666;7.146;2023-05-10T01:12:11;8.47;;;5.00;;
5225;SDS011;2632;51.666;7.146;2023-05-10T01:14:38;8.40;;;4.43;;
5225;SDS011;2632;51.666;7.146;2023-05-10T01:17:05;10.43;;;5.07;;
5225;SDS011;2632;51.666;7.146;2023-05-10T01:19:34;8.00;;;4.63;;
5225;SDS011;2632;51.666;7.146;2023-05-10T01:25:11;4.77;;;3.30;;
5225;SDS011;2632;51.666;7.146;2023-05-10T01:30:54;4.47;;;2.90;;
5225;SDS011;2632;51.666;7.146;2023-05-10T01:47:40;3.13;;;1.90;;
5225;SDS011;2632;51.666;7.146;2023-05-10T01:50:10;2.17;;;1.60;;
5225;SDS011;2632;51.666;7.146;2023-05-10T01:52:42;1.60;;;1.40;;
5225;SDS011;2632;51.666;7.146;2023-05-10T01:55:14;2.13;;;1.50;;
5225;SDS011;2632;51.666;7.146;2023-05-10T01:57:44;2.43;;;1.50;;
5225;SDS011;2632;51.666;7.146;2023-05-10T02:00:13;3.10;;;1.50;;
5225;SDS011;2632;51.666;7.146;2023-05-10T02:02:44;2.73;;;1.70;;
5225;SDS011;2632;51.666;7.146;2023-05-10T02:05:16;2.97;;;1.73;;
5225;SDS011;2632;51.666;7.146;2023-05-10T02:07:44;3.00;;;1.90;;
5225;SDS011;2632;51.666;7.146;2023-05-10T02:10:11;3.33;;;2.10;;
5225;SDS011;2632;51.666;7.146;2023-05-10T02:12:41;2.37;;;1.60;;
5225;SDS011;2632;51.666;7.146;2023-05-10T02:15:10;2.80;;;1.90;;
5225;SDS011;2632;51.666;7.146;2023-05-10T02:17:38;2.57;;;1.80;;
5225;SDS011;2632;51.666;7.146;2023-05-10T02:20:08;2.70;;;1.60;;
5225;SDS011;2632;51.666;7.146;2023-05-10T02:22:36;1.53;;;1.43;;
5225;SDS011;2632;51.666;7.146;2023-05-10T02:25:04;3.57;;;1.30;;
5225;SDS011;2632;51.666;7.146;2023-05-10T02:27:34;4.07;;;1.80;;
5225;SDS011;2632;51.666;7.146;2023-05-10T02:30:02;2.40;;;1.50;;
5225;SDS011;2632;51.666;7.146;2023-05-10T02:32:31;2.47;;;1.60;;
5225;SDS011;2632;51.666;7.146;2023-05-10T02:34:58;3.93;;;1.73;;
5225;SDS011;2632;51.666;7.146;2023-05-10T02:37:27;1.50;;;1.40;;
5225;SDS011;2632;51.666;7.146;2023-05-10T02:39:54;2.33;;;1.80;;
5225;SDS011;2632;51.666;7.146;2023-05-10T02:42:23;2.67;;;1.60;;
5225;SDS011;2632;51.666;7.146;2023-05-10T02:44:53;2.57;;;1.60;;
5225;SDS011;2632;51.666;7.146;2023-05-10T02:47:26;2.40;;;1.60;;
5225;SDS011;2632;51.666;7.146;2023-05-10T02:49:53;3.13;;;2.30;;
5225;SDS011;2632;51.666;7.146;2023-05-10T02:52:24;3.57;;;2.03;;
5225;SDS011;2632;51.666;7.146;2023-05-10T02:54:55;4.47;;;2.80;;
5225;SDS011;2632;51.666;7.146;2023-05-10T02:57:28;3.77;;;2.23;;
5225;SDS011;2632;51.666;7.146;2023-05-10T03:00:00;5.00;;;2.90;;
5225;SDS011;2632;51.666;7.146;2023-05-10T03:02:29;6.03;;;2.93;;
5225;SDS011;2632;51.666;7.146;2023-05-10T03:04:56;6.17;;;3.67;;
5225;SDS011;2632;51.666;7.146;2023-05-10T03:07:23;7.60;;;4.37;;
5225;SDS011;2632;51.666;7.146;2023-05-10T03:09:50;10.67;;;5.27;;
5225;SDS011;2632;51.666;7.146;2023-05-10T03:18:15;9.73;;;4.80;;
5225;SDS011;2632;51.666;7.146;2023-05-10T03:20:48;9.73;;;4.90;;
5225;SDS011;2632;51.666;7.146;2023-05-10T03:25:43;12.57;;;5.30;;
5225;SDS011;2632;51.666;7.146;2023-05-10T03:28:12;13.27;;;6.83;;
5225;SDS011;2632;51.666;7.146;2023-05-10T03:30:41;12.40;;;6.70;;
5225;SDS011;2632;51.666;7.146;2023-05-10T03:33:09;14.00;;;6.60;;
5225;SDS011;2632;51.666;7.146;2023-05-10T03:35:36;17.40;;;7.70;;
5225;SDS011;2632;51.666;7.146;2023-05-10T03:38:03;14.90;;;7.77;;
5225;SDS011;2632;51.666;7.146;2023-05-10T03:40:30;16.10;;;7.70;;
5225;SDS011;2632;51.666;7.146;2023-05-10T03:42:58;18.03;;;7.87;;
5225;SDS011;2632;51.666;7.146;2023-05-10T03:45:25;18.13;;;8.50;;
5225;SDS011;2632;51.666;7.146;2023-05-10T03:47:52;20.97;;;9.20;;
5225;SDS011;2632;51.666;7.146;2023-05-10T03:50:20;18.83;;;9.40;;
5225;SDS011;2632;51.666;7.146;2023-05-10T03:52:47;21.30;;;9.00;;
5225;SDS011;2632;51.666;7.146;2023-05-10T03:55:13;19.03;;;9.50;;
5225;SDS011;2632;51.666;7.146;2023-05-10T03:57:40;20.03;;;9.07;;
5225;SDS011;2632;51.666;7.146;2023-05-10T04:00:07;23.97;;;10.00;;
5225;SDS011;2632;51.666;7.146;2023-05-10T04:02:35;29.40;;;11.93;;
5225;SDS011;2632;51.666;7.146;2023-05-10T04:05:02;24.83;;;11.70;;
5225;SDS011;2632;51.666;7.146;2023-05-10T04:07:29;29.37;;;12.23;;
5225;SDS011;2632;51.666;7.146;2023-05-10T04:09:56;24.90;;;11.50;;
5225;SDS011;2632;51.666;7.146;2023-05-10T04:12:23;33.03;;;13.23;;
5225;SDS011;2632;51.666;7.146;2023-05-10T04:14:49;32.13;;;12.83;;
5225;SDS011;2632;51.666;7.146;2023-05-10T04:17:17;27.30;;;11.90;;
5225;SDS011;2632;51.666;7.146;2023-05-10T04:19:46;31.10;;;12.60;;
5225;SDS011;2632;51.666;7.146;2023-05-10T04:22:13;31.70;;;13.60;;
5225;SDS011;2632;51.666;7.146;2023-05-10T04:24:39;35.90;;;14.13;;
5225;SDS011;2632;51.666;7.146;2023-05-10T04:27:06;32.53;;;13.10;;
5225;SDS011;2632;51.666;7.146;2023-05-10T04:29:32;34.60;;;15.43;;
5225;SDS011;2632;51.666;7.146;2023-05-10T04:31:59;29.57;;;13.77;;
5225;SDS011;2632;51.666;7.146;2023-05-10T04:34:25;34.77;;;14.00;;
5225;SDS011;2632;51.666;7.146;2023-05-10T04:36:52;34.83;;;14.80;;
5225;SDS011;2632;51.666;7.146;2023-05-10T04:39:19;36.43;;;14.93;;
5225;SDS011;2632;51.666;7.146;2023-05-10T04:41:45;35.30;;;14.40;;
5225;SDS011;2632;51.666;7.146;2023-05-10T04:44:12;35.73;;;16.30;;
5225;SDS011;2632;51.666;7.146;2023-05-10T04:46:38;35.33;;;16.10;;
5225;SDS011;2632;51.666;7.146;2023-05-10T04:49:05;42.83;;;15.93;;
5225;SDS011;2632;51.666;7.146;2023-05-10T04:51:32;35.23;;;15.63;;
5225;SDS011;2632;51.666;7.146;2023-05-10T04:53:58;43.13;;;16.40;;
5225;SDS011;2632;51.666;7.146;2023-05-10T04:56:31;41.07;;;15.83;;
5225;SDS011;2632;51.666;7.146;2023-05-10T04:58:58;44.27;;;17.20;;
5225;SDS011;2632;51.666;7.146;2023-05-10T05:01:25;42.37;;;18.10;;
5225;SDS011;2632;51.666;7.146;2023-05-10T05:03:52;39.07;;;17.20;;
5225;SDS011;2632;51.666;7.146;2023-05-10T05:06:19;44.00;;;18.20;;
5225;SDS011;2632;51.666;7.146;2023-05-10T05:08:47;45.97;;;17.77;;
5225;SDS011;2632;51.666;7.146;2023-05-10T05:11:15;59.30;;;20.00;;
5225;SDS011;2632;51.666;7.146;2023-05-10T05:13:42;51.07;;;20.03;;
5225;SDS011;2632;51.666;7.146;2023-05-10T05:16:09;49.50;;;18.90;;
5225;SDS011;2632;51.666;7.146;2023-05-10T05:18:37;50.33;;;20.80;;
5225;SDS011;2632;51.666;7.146;2023-05-10T05:21:13;46.60;;;19.00;;
5225;SDS011;2632;51.666;7.146;2023-05-10T05:23:43;51.90;;;21.40;;
5225;SDS011;2632;51.666;7.146;2023-05-10T05:26:09;50.27;;;19.83;;
5225;SDS011;2632;51.666;7.146;2023-05-10T05:28:36;51.70;;;20.53;;
5225;SDS011;2632;51.666;7.146;2023-05-10T05:31:04;51.30;;;19.57;;
5225;SDS011;2632;51.666;7.146;2023-05-10T05:33:31;44.87;;;20.37;;
5225;SDS011;2632;51.666;7.146;2023-05-10T05:36:00;50.07;;;19.90;;
5225;SDS011;2632;51.666;7.146;2023-05-10T05:38:27;52.67;;;19.57;;
5225;SDS011;2632;51.666;7.146;2023-05-10T05:40:54;45.20;;;20.30;;
5225;SDS011;2632;51.666;7.146;2023-05-10T05:43:21;47.27;;;18.67;;
5225;SDS011;2632;51.666;7.146;2023-05-10T05:45:47;47.83;;;19.73;;
5225;SDS011;2632;51.666;7.146;2023-05-10T05:50:41;47.07;;;18.47;;
5225;SDS011;2632;51.666;7.146;2023-05-10T05:53:08;52.10;;;20.33;;
5225;SDS011;2632;51.666;7.146;2023-05-10T05:55:37;57.53;;;19.73;;
5225;SDS011;2632;51.666;7.146;2023-05-10T05:58:04;51.03;;;20.07;;
5225;SDS011;2632;51.666;7.146;2023-05-10T06:00:30;50.30;;;20.30;;
5225;SDS011;2632;51.666;7.146;2023-05-10T06:02:57;52.43;;;19.53;;
5225;SDS011;2632;51.666;7.146;2023-05-10T06:05:23;51.43;;;21.40;;
5225;SDS011;2632;51.666;7.146;2023-05-10T06:07:50;50.97;;;21.10;;
5225;SDS011;2632;51.666;7.146;2023-05-10T06:10:17;58.23;;;21.40;;
5225;SDS011;2632;51.666;7.146;2023-05-10T06:12:43;57.67;;;21.47;;
5225;SDS011;2632;51.666;7.146;2023-05-10T06:15:10;55.57;;;20.77;;
5225;SDS011;2632;51.666;7.146;2023-05-10T06:17:37;48.53;;;20.00;;
5225;SDS011;2632;51.666;7.146;2023-05-10T06:20:05;52.57;;;20.57;;
5225;SDS011;2632;51.666;7.146;2023-05-10T06:22:32;50.70;;;19.90;;
5225;SDS011;2632;51.666;7.146;2023-05-10T06:24:59;49.17;;;20.33;;
5225;SDS011;2632;51.666;7.146;2023-05-10T06:27:25;50.60;;;20.63;;
5225;SDS011;2632;51.666;7.146;2023-05-10T06:29:52;54.37;;;20.40;;
5225;SDS011;2632;51.666;7.146;2023-05-10T06:32:34;52.03;;;21.30;;
5225;SDS011;2632;51.666;7.146;2023-05-10T06:35:01;55.07;;;21.87;;
5225;SDS011;2632;51.666;7.146;2023-05-10T06:37:28;53.33;;;21.10;;
5225;SDS011;2632;51.666;7.146;2023-05-10T06:39:54;50.13;;;20.37;;
5225;SDS011;2632;51.666;7.146;2023-05-10T06:42:21;47.80;;;20.27;;
5225;SDS011;2632;51.666;7.146;2023-05-10T06:44:47;54.93;;;20.60;;
5225;SDS011;2632;51.666;7.146;2023-05-10T06:47:14;53.07;;;20.50;;
5225;SDS011;2632;51.666;7.146;2023-05-10T06:49:41;47.20;;;20.30;;
5225;SDS011;2632;51.666;7.146;2023-05-10T06:52:07;47.73;;;18.43;;
5225;SDS011;2632;51.666;7.146;2023-05-10T06:54:34;51.73;;;21.63;;
5225;SDS011;2632;51.666;7.146;2023-05-10T06:57:01;50.33;;;19.70;;
5225;SDS011;2632;51.666;7.146;2023-05-10T06:59:33;47.23;;;20.10;;
5225;SDS011;2632;51.666;7.146;2023-05-10T07:02:00;46.07;;;19.63;;
5225;SDS011;2632;51.666;7.146;2023-05-10T07:04:27;45.70;;;19.20;;
5225;SDS011;2632;51.666;7.146;2023-05-10T07:06:54;42.67;;;17.97;;
5225;SDS011;2632;51.666;7.146;2023-05-10T07:09:23;43.73;;;18.67;;
5225;SDS011;2632;51.666;7.146;2023-05-10T07:11:50;42.60;;;19.07;;
5225;SDS011;2632;51.666;7.146;2023-05-10T07:14:16;41.20;;;18.20;;
5225;SDS011;2632;51.666;7.146;2023-05-10T07:16:43;43.37;;;20.60;;
5225;SDS011;2632;51.666;7.146;2023-05-10T07:19:12;43.80;;;19.30;;
5225;SDS011;2632;51.666;7.146;2023-05-10T07:21:39;46.20;;;18.30;;
5225;SDS011;2632;51.666;7.146;2023-05-10T07:24:08;42.97;;;17.50;;
5225;SDS011;2632;51.666;7.146;2023-05-10T07:26:35;38.40;;;17.97;;
5225;SDS011;2632;51.666;7.146;2023-05-10T07:29:02;43.50;;;19.30;;
5225;SDS011;2632;51.666;7.146;2023-05-10T07:31:28;41.73;;;19.27;;
5225;SDS011;2632;51.666;7.146;2023-05-10T07:33:55;39.63;;;19.30;;
5225;SDS011;2632;51.666;7.146;2023-05-10T07:36:22;44.20;;;17.00;;
5225;SDS011;2632;51.666;7.146;2023-05-10T07:38:48;36.77;;;17.70;;
5225;SDS011;2632;51.666;7.146;2023-05-10T07:41:15;39.23;;;17.63;;
5225;SDS011;2632;51.666;7.146;2023-05-10T07:43:42;32.83;;;15.33;;
5225;SDS011;2632;51.666;7.146;2023-05-10T07:46:08;37.60;;;16.30;;
5225;SDS011;2632;51.666;7.146;2023-05-10T07:48:36;34.23;;;16.87;;
5225;SDS011;2632;51.666;7.146;2023-05-10T07:51:03;32.27;;;16.60;;
5225;SDS011;2632;51.666;7.146;2023-05-10T07:53:30;38.20;;;16.70;;
5225;SDS011;2632;51.666;7.146;2023-05-10T07:55:57;34.70;;;16.97;;
5225;SDS011;2632;51.666;7.146;2023-05-10T07:58:24;43.37;;;17.77;;
5225;SDS011;2632;51.666;7.146;2023-05-10T08:00:51;34.47;;;16.13;;
5225;SDS011;2632;51.666;7.146;2023-05-10T08:03:18;29.90;;;15.20;;
5225;SDS011;2632;51.666;7.146;2023-05-10T08:05:45;31.47;;;15.87;;
5225;SDS011;2632;51.666;7.146;2023-05-10T08:08:12;33.53;;;14.70;;
5225;SDS011;2632;51.666;7.146;2023-05-10T08:10:38;30.00;;;15.10;;
5225;SDS011;2632;51.666;7.146;2023-05-10T08:13:05;32.10;;;14.80;;
5225;SDS011;2632;51.666;7.146;2023-05-10T08:15:32;26.37;;;13.73;;
5225;SDS011;2632;51.666;7.146;2023-05-10T08:17:58;28.60;;;13.87;;
5225;SDS011;2632;51.666;7.146;2023-05-10T08:20:25;31.60;;;15.33;;
5225;SDS011;2632;51.666;7.146;2023-05-10T08:22:52;30.10;;;15.40;;
5225;SDS011;2632;51.666;7.146;2023-05-10T08:25:19;36.40;;;15.50;;
5225;SDS011;2632;51.666;7.146;2023-05-10T08:27:45;30.13;;;14.77;;
5225;SDS011;2632;51.666;7.146;2023-05-10T08:30:12;32.23;;;15.37;;
5225;SDS011;2632;51.666;7.146;2023-05-10T08:32:39;29.67;;;15.50;;
5225;SDS011;2632;51.666;7.146;2023-05-10T08:35:06;29.00;;;15.10;;
5225;SDS011;2632;51.666;7.146;2023-05-10T08:37:33;31.57;;;14.97;;
5225;SDS011;2632;51.666;7.146;2023-05-10T08:39:59;33.07;;;15.90;;
5225;SDS011;2632;51.666;7.146;2023-05-10T08:42:27;30.33;;;14.67;;
5225;SDS011;2632;51.666;7.146;2023-05-10T08:44:56;31.97;;;16.77;;
5225;SDS011;2632;51.666;7.146;2023-05-10T08:47:23;32.10;;;14.63;;
5225;SDS011;2632;51.666;7.146;2023-05-10T08:49:52;31.50;;;15.13;;
5225;SDS011;2632;51.666;7.146;2023-05-10T08:52:19;32.80;;;15.60;;
5225;SDS011;2632;51.666;7.146;2023-05-10T08:54:49;32.40;;;15.37;;
5225;SDS011;2632;51.666;7.146;2023-05-10T08:57:16;30.50;;;15.87;;
5225;SDS011;2632;51.666;7.146;2023-05-10T08:59:43;35.73;;;17.00;;
5225;SDS011;2632;51.666;7.146;2023-05-10T09:02:10;35.93;;;16.70;;
5225;SDS011;2632;51.666;7.146;2023-05-10T09:04:40;32.17;;;14.13;;
5225;SDS011;2632;51.666;7.146;2023-05-10T09:07:08;33.30;;;15.10;;
5225;SDS011;2632;51.666;7.146;2023-05-10T09:09:34;25.57;;;13.17;;
5225;SDS011;2632;51.666;7.146;2023-05-10T09:12:02;30.20;;;14.63;;
5225;SDS011;2632;51.666;7.146;2023-05-10T09:14:29;28.83;;;15.70;;
5225;SDS011;2632;51.666;7.146;2023-05-10T09:16:57;24.07;;;13.10;;
5225;SDS011;2632;51.666;7.146;2023-05-10T09:19:23;28.30;;;14.17;;
5225;SDS011;2632;51.666;7.146;2023-05-10T09:21:50;28.63;;;13.53;;
5225;SDS011;2632;51.666;7.146;2023-05-10T09:24:17;21.47;;;11.90;;
5225;SDS011;2632;51.666;7.146;2023-05-10T09:26:47;22.53;;;11.30;;
5225;SDS011;2632;51.666;7.146;2023-05-10T09:29:14;22.23;;;11.63;;
5225;SDS011;2632;51.666;7.146;2023-05-10T09:31:52;24.23;;;11.40;;
5225;SDS011;2632;51.666;7.146;2023-05-10T09:34:30;22.33;;;10.77;;
5225;SDS011;2632;51.666;7.146;2023-05-10T09:36:59;23.00;;;11.33;;
5225;SDS011;2632;51.666;7.146;2023-05-10T09:39:34;22.03;;;11.20;;
5225;SDS011;2632;51.666;7.146;2023-05-10T09:42:06;19.03;;;11.03;;
5225;SDS011;2632;51.666;7.146;2023-05-10T09:44:36;21.73;;;10.70;;
5225;SDS011;2632;51.666;7.146;2023-05-10T09:47:04;22.00;;;11.57;;
5225;SDS011;2632;51.666;7.146;2023-05-10T09:49:30;23.00;;;11.43;;
5225;SDS011;2632;51.666;7.146;2023-05-10T09:52:04;24.00;;;10.80;;
5225;SDS011;2632;51.666;7.146;2023-05-10T09:54:32;24.20;;;11.20;;
5225;SDS011;2632;51.666;7.146;2023-05-10T09:57:00;23.87;;;11.20;;
5225;SDS011;2632;51.666;7.146;2023-05-10T09:59:27;25.27;;;11.83;;
5225;SDS011;2632;51.666;7.146;2023-05-10T10:01:58;27.13;;;12.63;;
5225;SDS011;2632;51.666;7.146;2023-05-10T10:04:26;28.00;;;12.50;;
5225;SDS011;2632;51.666;7.146;2023-05-10T10:06:59;28.03;;;12.10;;
5225;SDS011;2632;51.666;7.146;2023-05-10T10:09:30;28.73;;;11.97;;
5225;SDS011;2632;51.666;7.146;2023-05-10T10:11:58;23.57;;;12.20;;
5225;SDS011;2632;51.666;7.146;2023-05-10T10:14:26;27.03;;;12.20;;
5225;SDS011;2632;51.666;7.146;2023-05-10T10:16:53;25.53;;;12.30;;
5225;SDS011;2632;51.666;7.146;2023-05-10T10:19:33;26.80;;;12.00;;
5225;SDS011;2632;51.666;7.146;2023-05-10T10:22:03;30.03;;;12.73;;
5225;SDS011;2632;51.666;7.146;2023-05-10T10:24:31;29.10;;;13.17;;
5225;SDS011;2632;51.666;7.146;2023-05-10T10:27:00;30.03;;;13.53;;
5225;SDS011;2632;51.666;7.146;2023-05-10T10:29:58;34.20;;;14.77;;
5225;SDS011;2632;51.666;7.146;2023-05-10T10:35:42;29.30;;;13.40;;
5225;SDS011;2632;51.666;7.146;2023-05-10T10:38:11;30.30;;;14.30;;
5225;SDS011;2632;51.666;7.146;2023-05-10T10:40:39;34.27;;;13.00;;
5225;SDS011;2632;51.666;7.146;2023-05-10T10:43:27;25.60;;;12.90;;
5225;SDS011;2632;51.666;7.146;2023-05-10T10:48:43;26.63;;;13.00;;
5225;SDS011;2632;51.666;7.146;2023-05-10T10:51:14;23.33;;;11.23;;
5225;SDS011;2632;51.666;7.146;2023-05-10T10:53:41;24.07;;;12.30;;
5225;SDS011;2632;51.666;7.146;2023-05-10T10:56:10;28.57;;;14.00;;
5225;SDS011;2632;51.666;7.146;2023-05-10T10:58:38;25.90;;;13.60;;
5225;SDS011;2632;51.666;7.146;2023-05-10T11:03:41;27.53;;;13.57;;
5225;SDS011;2632;51.666;7.146;2023-05-10T11:06:30;40.90;;;13.53;;
5225;SDS011;2632;51.666;7.146;2023-05-10T11:09:07;32.23;;;13.90;;
5225;SDS011;2632;51.666;7.146;2023-05-10T11:11:35;28.20;;;14.33;;
5225;SDS011;2632;51.666;7.146;2023-05-10T11:14:06;28.40;;;13.33;;
5225;SDS011;2632;51.666;7.146;2023-05-10T11:16:42;24.47;;;12.13;;
5225;SDS011;2632;51.666;7.146;2023-05-10T11:19:10;23.37;;;12.20;;
5225;SDS011;2632;51.666;7.146;2023-05-10T11:21:51;23.63;;;10.60;;
5225;SDS011;2632;51.666;7.146;2023-05-10T11:24:39;25.33;;;12.00;;
5225;SDS011;2632;51.666;7.146;2023-05-10T11:27:05;26.43;;;11.10;;
5225;SDS011;2632;51.666;7.146;2023-05-10T11:29:32;23.50;;;11.30;;
5225;SDS011;2632;51.666;7.146;2023-05-10T11:31:59;22.00;;;11.13;;
5225;SDS011;2632;51.666;7.146;2023-05-10T11:34:30;24.97;;;11.03;;
5225;SDS011;2632;51.666;7.146;2023-05-10T11:36:59;22.23;;;10.20;;
5225;SDS011;2632;51.666;7.146;2023-05-10T11:39:27;23.17;;;10.67;;
5225;SDS011;2632;51.666;7.146;2023-05-10T11:41:54;18.23;;;9.60;;
5225;SDS011;2632;51.666;7.146;2023-05-10T11:44:21;21.20;;;10.53;;
5225;SDS011;2632;51.666;7.146;2023-05-10T11:46:48;19.00;;;10.13;;
5225;SDS011;2632;51.666;7.146;2023-05-10T11:49:15;18.10;;;9.87;;
5225;SDS011;2632;51.666;7.146;2023-05-10T11:51:42;18.33;;;10.00;;
5225;SDS011;2632;51.666;7.146;2023-05-10T11:54:09;18.70;;;9.77;;
5225;SDS011;2632;51.666;7.146;2023-05-10T11:56:37;20.73;;;10.17;;
5225;SDS011;2632;51.666;7.146;2023-05-10T11:59:05;18.57;;;8.73;;
5225;SDS011;2632;51.666;7.146;2023-05-10T12:01:32;17.37;;;9.30;;
5225;SDS011;2632;51.666;7.146;2023-05-10T12:03:59;16.70;;;8.60;;
5225;SDS011;2632;51.666;7.146;2023-05-10T12:06:27;18.73;;;9.10;;
5225;SDS011;2632;51.666;7.146;2023-05-10T12:08:55;17.23;;;8.73;;
5225;SDS011;2632;51.666;7.146;2023-05-10T12:11:26;17.93;;;8.67;;
5225;SDS011;2632;51.666;7.146;2023-05-10T12:13:53;17.30;;;9.20;;
5225;SDS011;2632;51.666;7.146;2023-05-10T12:16:25;15.67;;;8.97;;
5225;SDS011;2632;51.666;7.146;2023-05-10T12:18:56;17.73;;;9.47;;
5225;SDS011;2632;51.666;7.146;2023-05-10T12:21:24;15.43;;;9.00;;
5225;SDS011;2632;51.666;7.146;2023-05-10T12:23:52;16.33;;;8.87;;
5225;SDS011;2632;51.666;7.146;2023-05-10T12:26:27;12.73;;;7.83;;
5225;SDS011;2632;51.666;7.146;2023-05-10T12:28:54;13.73;;;7.47;;
5225;SDS011;2632;51.666;7.146;2023-05-10T12:34:25;14.90;;;7.53;;
5225;SDS011;2632;51.666;7.146;2023-05-10T12:37:00;13.47;;;7.80;;
5225;SDS011;2632;51.666;7.146;2023-05-10T12:39:38;13.60;;;8.00;;
5225;SDS011;2632;51.666;7.146;2023-05-10T12:42:08;16.13;;;9.23;;
5225;SDS011;2632;51.666;7.146;2023-05-10T12:44:35;19.03;;;10.10;;
5225;SDS011;2632;51.666;7.146;2023-05-10T12:47:02;19.70;;;10.87;;
5225;SDS011;2632;51.666;7.146;2023-05-10T12:49:29;17.03;;;10.60;;
5225;SDS011;2632;51.666;7.146;2023-05-10T12:51:55;17.47;;;11.03;;
5225;SDS011;2632;51.666;7.146;2023-05-10T12:54:22;20.83;;;11.37;;
5225;SDS011;2632;51.666;7.146;2023-05-10T12:56:49;15.40;;;10.00;;
5225;SDS011;2632;51.666;7.146;2023-05-10T12:59:15;19.30;;;10.70;;
5225;SDS011;2632;51.666;7.146;2023-05-10T13:01:42;21.30;;;11.90;;
5225;SDS011;2632;51.666;7.146;2023-05-10T13:04:09;19.17;;;10.93;;
5225;SDS011;2632;51.666;7.146;2023-05-10T13:06:35;17.03;;;10.10;;
5225;SDS011;2632;51.666;7.146;2023-05-10T13:09:02;17.83;;;9.57;;
5225;SDS011;2632;51.666;7.146;2023-05-10T13:11:29;19.70;;;10.87;;
5225;SDS011;2632;51.666;7.146;2023-05-10T13:13:55;19.50;;;11.57;;
5225;SDS011;2632;51.666;7.146;2023-05-10T13:16:22;16.17;;;9.60;;
5225;SDS011;2632;51.666;7.146;2023-05-10T13:18:49;18.03;;;9.40;;
5225;SDS011;2632;51.666;7.146;2023-05-10T13:21:15;14.73;;;9.63;;
5225;SDS011;2632;51.666;7.146;2023-05-10T13:23:42;12.10;;;8.40;;
5225;SDS011;2632;51.666;7.146;2023-05-10T13:26:09;13.83;;;8.63;;
5225;SDS011;2632;51.666;7.146;2023-05-10T13:28:35;12.97;;;8.20;;
5225;SDS011;2632;51.666;7.146;2023-05-10T13:31:04;16.30;;;8.90;;
5225;SDS011;2632;51.666;7.146;2023-05-10T13:33:31;16.70;;;8.87;;
5225;SDS011;2632;51.666;7.146;2023-05-10T13:35:57;14.93;;;8.87;;
5225;SDS011;2632;51.666;7.146;2023-05-10T13:38:24;15.53;;;9.20;;
5225;SDS011;2632;51.666;7.146;2023-05-10T13:40:51;15.40;;;8.30;;
5225;SDS011;2632;51.666;7.146;2023-05-10T13:43:19;13.77;;;9.30;;
5225;SDS011;2632;51.666;7.146;2023-05-10T13:45:45;14.93;;;8.13;;
5225;SDS011;2632;51.666;7.146;2023-05-10T13:48:12;14.97;;;9.00;;
5225;SDS011;2632;51.666;7.146;2023-05-10T13:50:39;15.43;;;9.10;;
5225;SDS011;2632;51.666;7.146;2023-05-10T13:53:06;15.30;;;9.10;;
5225;SDS011;2632;51.666;7.146;2023-05-10T13:55:32;12.80;;;7.47;;
5225;SDS011;2632;51.666;7.146;2023-05-10T13:57:59;10.73;;;6.83;;
5225;SDS011;2632;51.666;7.146;2023-05-10T14:00:26;13.90;;;8.70;;
5225;SDS011;2632;51.666;7.146;2023-05-10T14:02:53;15.23;;;7.63;;
5225;SDS011;2632;51.666;7.146;2023-05-10T14:05:20;11.40;;;7.43;;
5225;SDS011;2632;51.666;7.146;2023-05-10T14:07:51;13.97;;;8.07;;
5225;SDS011;2632;51.666;7.146;2023-05-10T14:10:18;10.73;;;7.93;;
5225;SDS011;2632;51.666;7.146;2023-05-10T14:12:44;12.63;;;8.50;;
5225;SDS011;2632;51.666;7.146;2023-05-10T14:15:11;11.67;;;7.30;;
5225;SDS011;2632;51.666;7.146;2023-05-10T14:17:38;13.47;;;7.83;;
5225;SDS011;2632;51.666;7.146;2023-05-10T14:20:04;13.33;;;7.00;;
5225;SDS011;2632;51.666;7.146;2023-05-10T14:22:32;11.40;;;8.10;;
5225;SDS011;2632;51.666;7.146;2023-05-10T14:24:58;15.40;;;8.60;;
5225;SDS011;2632;51.666;7.146;2023-05-10T14:27:25;14.53;;;8.20;;
5225;SDS011;2632;51.666;7.146;2023-05-10T14:29:52;13.97;;;8.03;;
5225;SDS011;2632;51.666;7.146;2023-05-10T14:32:19;12.93;;;8.17;;
5225;SDS011;2632;51.666;7.146;2023-05-10T14:34:46;10.30;;;6.90;;
5225;SDS011;2632;51.666;7.146;2023-05-10T14:37:12;12.20;;;8.17;;
5225;SDS011;2632;51.666;7.146;2023-05-10T14:39:39;11.83;;;7.50;;
5225;SDS011;2632;51.666;7.146;2023-05-10T14:42:06;11.97;;;7.07;;
5225;SDS011;2632;51.666;7.146;2023-05-10T14:44:33;10.60;;;6.90;;
5225;SDS011;2632;51.666;7.146;2023-05-10T14:47:00;14.50;;;9.20;;
5225;SDS011;2632;51.666;7.146;2023-05-10T14:49:26;13.67;;;8.73;;
5225;SDS011;2632;51.666;7.146;2023-05-10T14:51:53;14.77;;;9.83;;
5225;SDS011;2632;51.666;7.146;2023-05-10T14:54:20;18.27;;;9.73;;
5225;SDS011;2632;51.666;7.146;2023-05-10T14:56:46;14.83;;;9.57;;
5225;SDS011;2632;51.666;7.146;2023-05-10T14:59:15;15.77;;;8.67;;
5225;SDS011;2632;51.666;7.146;2023-05-10T15:01:42;16.20;;;10.07;;
5225;SDS011;2632;51.666;7.146;2023-05-10T15:04:09;14.83;;;8.73;;
5225;SDS011;2632;51.666;7.146;2023-05-10T15:06:36;14.67;;;8.50;;
5225;SDS011;2632;51.666;7.146;2023-05-10T15:09:03;14.63;;;8.47;;
5225;SDS011;2632;51.666;7.146;2023-05-10T15:11:30;15.20;;;7.90;;
5225;SDS011;2632;51.666;7.146;2023-05-10T15:13:56;15.70;;;8.60;;
5225;SDS011;2632;51.666;7.146;2023-05-10T15:16:23;12.70;;;8.20;;
5225;SDS011;2632;51.666;7.146;2023-05-10T15:18:50;10.30;;;7.07;;
5225;SDS011;2632;51.666;7.146;2023-05-10T15:21:17;17.80;;;7.77;;
5225;SDS011;2632;51.666;7.146;2023-05-10T15:23:43;10.20;;;6.97;;
5225;SDS011;2632;51.666;7.146;2023-05-10T15:26:10;10.60;;;7.10;;
5225;SDS011;2632;51.666;7.146;2023-05-10T15:28:36;11.23;;;6.23;;
5225;SDS011;2632;51.666;7.146;2023-05-10T15:31:03;11.23;;;6.40;;
5225;SDS011;2632;51.666;7.146;2023-05-10T15:33:30;6.70;;;4.57;;
5225;SDS011;2632;51.666;7.146;2023-05-10T15:35:56;9.83;;;5.00;;
5225;SDS011;2632;51.666;7.146;2023-05-10T15:38:23;8.90;;;5.60;;
5225;SDS011;2632;51.666;7.146;2023-05-10T15:40:50;7.33;;;5.43;;
5225;SDS011;2632;51.666;7.146;2023-05-10T15:43:16;9.00;;;5.70;;